createdAt,value
2023-05-11T00:04:56.167Z,96918.56
2023-05-11T00:09:57.939Z,96912.59
2023-05-11T00:15:00.002Z,96904.94
2023-05-11T00:20:02.082Z,96916.19
2023-05-11T00:25:04.486Z,96905.53
2023-05-11T00:30:07.027Z,96901.66
2023-05-11T00:35:12.450Z,96902.81
2023-05-11T00:40:15.492Z,96897.38
2023-05-11T00:45:18.305Z,96894.09
2023-05-11T00:50:20.937Z,96887.50
2023-05-11T00:55:23.057Z,96892.22
2023-05-11T01:00:24.901Z,96892.59
2023-05-11T01:05:40.682Z,96889.59
2023-05-11T01:10:49.138Z,96883.00
2023-05-11T01:15:52.968Z,96877.78
2023-05-11T01:21:01.648Z,96877.88
2023-05-11T01:26:16.507Z,96881.22
2023-05-11T01:31:20.347Z,96884.63
2023-05-11T01:36:28.359Z,96880.00
2023-05-11T01:41:33.684Z,96893.22
2023-05-11T01:46:36.061Z,96887.25
2023-05-11T01:51:39.537Z,96889.72
2023-05-11T01:56:44.258Z,96890.50
2023-05-11T02:01:46.475Z,96892.41
2023-05-11T02:06:49.396Z,96888.84
2023-05-11T02:11:53.924Z,96888.84
2023-05-11T02:16:57.261Z,96885.47
2023-05-11T02:22:00.595Z,96885.78
2023-05-11T02:27:02.808Z,96890.47
2023-05-11T02:32:09.235Z,96880.91
2023-05-11T02:37:20.827Z,96878.75
2023-05-11T02:42:24.917Z,96874.91
2023-05-11T02:47:32.321Z,96881.50
2023-05-11T02:52:35.988Z,96877.13
2023-05-11T02:57:39.087Z,96873.84
2023-05-11T03:02:43.720Z,96881.50
2023-05-11T03:07:45.836Z,96866.44
2023-05-11T03:12:47.711Z,96861.19
2023-05-11T03:17:52.229Z,96862.31
2023-05-11T03:22:56.614Z,96857.66
2023-05-11T03:27:59.201Z,96855.78
2023-05-11T03:33:02.380Z,96854.66
2023-05-11T03:38:05.738Z,96848.09
2023-05-11T03:43:10.897Z,96837.69
2023-05-11T03:48:16.208Z,96847.25
2023-05-11T03:53:18.425Z,96853.59
2023-05-11T03:58:20.431Z,96841.50
2023-05-11T04:03:23.394Z,96838.22
2023-05-11T04:08:25.516Z,96833.81
2023-05-11T04:13:27.401Z,96843.66
2023-05-11T04:18:29.460Z,96834.59
2023-05-11T04:23:31.484Z,96844.72
2023-05-11T04:28:34.249Z,96843.09
2023-05-11T04:33:36.150Z,96844.22
2023-05-11T04:38:39.221Z,96838.97
2023-05-11T04:43:41.847Z,96844.16
2023-05-11T04:48:45.274Z,96840.06
2023-05-11T04:53:47.574Z,96842.53
2023-05-11T04:58:49.480Z,96837.63
2023-05-11T05:03:51.839Z,96838.72
2023-05-11T05:08:53.563Z,96841.41
2023-05-11T05:13:55.578Z,96837.31
2023-05-11T05:18:57.654Z,96851.81
2023-05-11T05:23:59.942Z,96854.00
2023-05-11T05:29:02.189Z,96853.41
2023-05-11T05:34:04.866Z,96857.78
2023-05-11T05:39:11.916Z,96857.22
2023-05-11T05:44:14.539Z,96858.88
2023-05-11T05:49:17.629Z,96857.22
2023-05-11T05:54:19.707Z,96865.41
2023-05-11T05:59:24.172Z,96864.59
2023-05-11T06:04:30.319Z,96869.75
2023-05-11T06:09:32.302Z,96860.19
2023-05-11T06:14:34.179Z,96863.69
2023-05-11T06:19:37.497Z,96873.03
2023-05-11T06:24:39.868Z,96877.97
2023-05-11T06:29:42.308Z,96877.38
2023-05-11T06:34:45.375Z,96879.78
2023-05-11T06:39:48.702Z,96874.31
2023-05-11T06:44:50.617Z,96865.84
2023-05-11T06:49:52.577Z,96870.19
2023-05-11T06:54:54.370Z,96865.28
2023-05-11T06:59:56.937Z,96858.13
2023-05-11T07:04:58.928Z,96869.06
2023-05-11T07:10:00.997Z,96857.81
2023-05-11T07:15:02.980Z,96856.66
2023-05-11T07:20:05.021Z,96866.81
2023-05-11T07:25:09.617Z,96857.47
2023-05-11T07:30:11.882Z,96860.22
2023-05-11T07:35:15.112Z,96863.50
2023-05-11T07:40:17.249Z,96860.16
2023-05-11T07:45:19.557Z,96866.69
2023-05-11T07:50:23.889Z,96863.34
2023-05-11T07:55:27.028Z,96858.38
2023-05-11T08:00:28.806Z,96861.13
2023-05-11T08:05:33.173Z,96865.88
2023-05-11T08:10:35.886Z,96869.19
2023-05-11T08:15:37.888Z,96869.41
2023-05-11T08:20:42.151Z,96869.41
2023-05-11T08:25:55.467Z,96871.88
2023-05-11T08:30:58.254Z,96868.03
2023-05-11T08:36:00.269Z,96871.09
2023-05-11T08:41:03.145Z,96869.94
2023-05-11T08:46:09.718Z,96861.16
2023-05-11T08:51:12.100Z,96866.06
2023-05-11T08:56:15.608Z,96870.44
2023-05-11T09:01:19.199Z,96868.28
2023-05-11T09:06:23.212Z,96871.25
2023-05-11T09:11:25.329Z,96867.06
2023-05-11T09:16:36.701Z,96865.44
2023-05-11T09:21:39.472Z,96869.84
2023-05-11T09:26:41.362Z,96870.97
2023-05-11T09:31:45.240Z,96868.53
2023-05-11T09:36:52.370Z,96867.06
2023-05-11T09:42:23.536Z,96862.91
2023-05-11T09:47:25.356Z,96865.22
2023-05-11T09:52:27.061Z,96867.78
2023-05-11T09:57:31.287Z,96864.50
2023-05-11T10:02:34.334Z,96864.56
2023-05-11T10:07:36.486Z,96860.75
2023-05-11T10:12:40.236Z,96865.16
2023-05-11T10:17:44.628Z,96854.53
2023-05-11T10:22:47.525Z,96852.50
2023-05-11T10:27:50.870Z,96858.16
2023-05-11T10:32:55.194Z,96852.59
2023-05-11T10:37:58.390Z,96858.25
2023-05-11T10:43:52.357Z,96854.09
2023-05-11T10:48:54.051Z,96842.13
2023-05-11T10:54:28.080Z,96846.81
2023-05-11T10:59:48.002Z,96850.31
2023-05-11T11:04:52.089Z,96846.50
2023-05-11T11:10:00.510Z,96844.88
2023-05-11T11:15:07.536Z,96848.28
2023-05-11T11:20:30.358Z,96849.38
2023-05-11T11:25:53.253Z,96843.81
2023-05-11T11:31:26.852Z,96853.06
2023-05-11T11:37:01.040Z,96849.28
2023-05-11T11:42:07.128Z,96850.44
2023-05-11T11:47:20.793Z,96853.78
2023-05-11T11:52:28.710Z,96855.34
2023-05-11T11:57:33.167Z,96856.69
2023-05-11T12:02:35.365Z,96847.84
2023-05-11T12:07:43.350Z,96849.31
2023-05-11T12:12:46.438Z,96854.63
2023-05-11T12:17:48.148Z,96850.84
2023-05-11T12:22:50.739Z,96853.66
2023-05-11T12:28:03.481Z,96856.13
2023-05-11T12:33:07.884Z,96848.44
2023-05-11T12:38:11.010Z,96852.22
2023-05-11T12:43:17.202Z,96846.97
2023-05-11T12:48:19.570Z,96841.25
2023-05-11T12:53:22.178Z,96846.69
2023-05-11T12:58:24.028Z,96846.94
2023-05-11T13:03:31.169Z,96838.34
2023-05-11T13:08:33.124Z,96831.72
2023-05-11T13:13:35.419Z,96831.72
2023-05-11T13:18:37.242Z,96832.84
2023-05-11T13:23:39.221Z,96826.22
2023-05-11T13:28:41.228Z,96827.88
2023-05-11T13:33:42.978Z,96819.22
2023-05-11T13:38:45.595Z,96819.53
2023-05-11T13:43:48.689Z,96812.44
2023-05-11T13:48:50.364Z,96813.28
2023-05-11T13:53:52.050Z,96817.59
2023-05-11T13:58:53.747Z,96809.41
2023-05-11T14:03:56.595Z,96808.28
2023-05-11T14:08:58.341Z,96804.75
2023-05-11T14:14:00.771Z,96802.50
2023-05-11T14:19:02.590Z,96797.78
2023-05-11T14:24:12.220Z,96797.72
2023-05-11T14:29:14.797Z,96801.47
2023-05-11T14:34:16.977Z,96799.88
2023-05-11T14:39:18.698Z,96794.97
2023-05-11T14:44:23.621Z,96791.63
2023-05-11T14:49:25.407Z,96793.03
2023-05-11T14:54:27.107Z,96793.84
2023-05-11T14:59:28.788Z,96797.13
2023-05-11T15:04:30.739Z,96795.97
2023-05-11T15:09:32.485Z,96794.63
2023-05-11T15:14:34.157Z,96796.78
2023-05-11T15:19:36.036Z,96803.38
2023-05-11T15:24:38.472Z,96798.69
2023-05-11T15:29:40.785Z,96809.69
2023-05-11T15:34:57.812Z,96803.09
2023-05-11T15:40:00.727Z,96806.66
2023-05-11T15:45:02.890Z,96806.94
2023-05-11T15:50:04.976Z,96821.72
2023-05-11T15:55:07.656Z,96815.28
2023-05-11T16:00:10.543Z,96815.00
2023-05-11T16:05:12.337Z,96814.47
2023-05-11T16:10:14.062Z,96812.22
2023-05-11T16:15:27.829Z,96819.63
2023-05-11T16:20:30.774Z,96826.31
2023-05-11T16:25:32.496Z,96832.34
2023-05-11T16:30:34.244Z,96834.56
2023-05-11T16:35:36.093Z,96832.41
2023-05-11T16:40:37.859Z,96832.97
2023-05-11T16:45:39.914Z,96826.44
2023-05-11T16:50:42.290Z,96829.19
2023-05-11T16:55:44.015Z,96828.06
2023-05-11T17:00:46.110Z,96823.06
2023-05-11T17:05:48.654Z,96823.06
2023-05-11T17:10:50.543Z,96826.41
2023-05-11T17:15:56.053Z,96836.31
2023-05-11T17:20:58.131Z,96837.16
2023-05-11T17:25:59.894Z,96832.47
2023-05-11T17:31:09.291Z,96836.09
2023-05-11T17:36:12.612Z,96826.28
2023-05-11T17:41:15.242Z,96833.75
2023-05-11T17:46:17.113Z,96827.88
2023-05-11T17:51:20.258Z,96834.09
2023-05-11T17:56:22.281Z,96829.81
2023-05-11T18:01:24.043Z,96842.47
2023-05-11T18:06:25.973Z,96838.72
2023-05-11T18:11:27.734Z,96843.94
2023-05-11T18:16:29.720Z,96847.47
2023-05-11T18:21:31.990Z,96843.09
2023-05-11T18:26:33.740Z,96841.16
2023-05-11T18:31:35.566Z,96845.25
2023-05-11T18:36:37.599Z,96852.34
2023-05-11T18:41:39.260Z,96855.66
2023-05-11T18:46:41.727Z,96855.91
2023-05-11T18:51:43.586Z,96857.88
2023-05-11T18:56:45.281Z,96863.13
2023-05-11T19:01:48.353Z,96858.69
2023-05-11T19:06:50.469Z,96856.72
2023-05-11T19:11:52.130Z,96868.34
2023-05-11T19:16:53.954Z,96874.19
2023-05-11T19:21:55.881Z,96867.91
2023-05-11T19:27:06.594Z,96867.94
2023-05-11T19:32:09.380Z,96879.75
2023-05-11T19:37:11.711Z,96868.53
2023-05-11T19:42:13.405Z,96880.63
2023-05-11T19:47:15.693Z,96875.13
2023-05-11T19:52:17.397Z,96870.50
2023-05-11T19:57:19.760Z,96871.78
2023-05-11T20:02:21.507Z,96877.22
2023-05-11T20:07:23.820Z,96874.69
2023-05-11T20:12:25.636Z,96881.50
2023-05-11T20:17:27.299Z,96870.81
2023-05-11T20:22:31.406Z,96875.16
2023-05-11T20:27:33.690Z,96877.34
2023-05-11T20:32:37.400Z,96861.75
2023-05-11T20:37:39.746Z,96873.31
2023-05-11T20:42:41.516Z,96874.34
2023-05-11T20:47:43.274Z,96858.88
2023-05-11T20:52:45.572Z,96855.63
2023-05-11T20:57:47.252Z,96865.47
2023-05-11T21:02:49.350Z,96857.78
2023-05-11T21:07:51.322Z,96861.03
2023-05-11T21:12:53.532Z,96860.00
2023-05-11T21:17:55.479Z,96860.25
2023-05-11T21:22:58.076Z,96855.25
2023-05-11T21:28:00.928Z,96850.75
2023-05-11T21:33:02.887Z,96856.78
2023-05-11T21:38:04.653Z,96847.97
2023-05-11T21:43:08.119Z,96855.03
2023-05-11T21:48:11.252Z,96849.75
2023-05-11T21:53:12.902Z,96846.72
2023-05-11T21:58:14.818Z,96851.72
2023-05-11T22:03:16.853Z,96841.59
2023-05-11T22:08:18.573Z,96849.41
2023-05-11T22:13:20.934Z,96841.53
2023-05-11T22:18:22.682Z,96842.09
2023-05-11T22:23:24.637Z,96854.22
2023-05-11T22:28:26.420Z,96852.31
2023-05-11T22:33:28.055Z,96857.53
2023-05-11T22:38:30.321Z,96855.91
2023-05-11T22:43:32.084Z,96859.78
2023-05-11T22:48:33.818Z,96857.03
2023-05-11T22:53:35.635Z,96860.34
2023-05-11T22:58:37.701Z,96859.25
2023-05-11T23:03:40.101Z,96855.19
2023-05-11T23:08:41.881Z,96852.72
2023-05-11T23:13:43.702Z,96862.59
2023-05-11T23:18:46.343Z,96857.63
2023-05-11T23:23:48.202Z,96856.00
2023-05-11T23:28:50.037Z,96849.44
2023-05-11T23:33:51.915Z,96855.75
2023-05-11T23:38:54.349Z,96857.16
2023-05-11T23:43:56.386Z,96844.53
2023-05-11T23:48:58.438Z,96841.84
2023-05-11T23:54:00.404Z,96842.63
2023-05-11T23:59:02.392Z,96837.97
